Time;durP1;ratioP1;P1;durP2;ratioP2;P2;SDS_P1;SDS_P2;PMS_P1;PMS_P2;Temp;Humidity;BMP_temperature;BMP_pressure;BME280_temperature;BME280_humidity;BME280_pressure;Samples;Min_cycle;Max_cycle;Signal;HPM_P1;HPM_P2
2023/01/18 00:01:58;;;;;;;;;;;1.50;99.90;;;;;;5098104;28;19908;-51
2023/01/18 00:04:24;;;;;;;;;;;1.50;99.90;;;;;;5097831;28;19915;-49
2023/01/18 00:06:49;;;;;;;;;;;1.50;99.90;;;;;;5098277;28;19908;-50
2023/01/18 00:09:15;;;;;;;;;;;1.50;99.90;;;;;;5097874;28;19915;-48
2023/01/18 00:11:41;;;;;;;;;;;1.50;99.90;;;;;;5098350;28;19953;-48
2023/01/18 00:14:06;;;;;;;;;;;1.50;99.90;;;;;;5097886;28;19908;-49
2023/01/18 00:16:32;;;;;;;;;;;1.50;99.90;;;;;;5097717;28;20018;-49
2023/01/18 00:18:58;;;;;;;;;;;1.50;99.90;;;;;;5098240;28;19919;-48
2023/01/18 00:21:25;;;;;;;;;;;1.50;99.90;;;;;;5097918;28;19975;-51
2023/01/18 00:23:51;;;;;;;;;;;1.50;99.90;;;;;;5099430;28;19908;-50
2023/01/18 00:26:17;;;;;;;;;;;1.50;99.90;;;;;;5101985;28;19969;-50
2023/01/18 00:28:43;;;;;;;;;;;1.50;99.90;;;;;;5101820;28;20398;-49
2023/01/18 00:31:16;;;;;;;;;;;1.60;99.90;;;;;;5101993;28;19908;-50
2023/01/18 00:33:42;;;;;;;;;;;1.60;99.90;;;;;;5101991;28;19909;-47
2023/01/18 00:36:08;;;;;;;;;;;1.60;99.90;;;;;;5101795;28;19912;-47
2023/01/18 00:38:34;;;;;;;;;;;1.70;99.90;;;;;;5101509;28;20409;-49
2023/01/18 00:40:59;;;;;;;;;;;1.80;99.90;;;;;;5102128;28;19990;-49
2023/01/18 00:43:37;;;;;;;;;;;1.80;99.90;;;;;;5101813;28;19951;-48
2023/01/18 00:46:10;;;;;;;;;;;1.80;99.90;;;;;;5101778;28;19908;-51
2023/01/18 00:48:38;;;;;;;;;;;2.10;99.90;;;;;;5101486;28;20405;-49
2023/01/18 00:51:04;;;;;;;;;;;2.10;99.90;;;;;;5101491;28;19915;-52
2023/01/18 00:53:30;;;;;;;;;;;2.20;99.90;;;;;;5101458;28;21013;-49
2023/01/18 00:55:55;;;;;;;;;;;2.20;99.90;;;;;;5101387;28;19908;-50
2023/01/18 00:58:21;;;;;;;;;;;2.30;99.90;;;;;;5099886;28;19916;-49
2023/01/18 01:00:47;;;;;;;;;;;2.30;99.90;;;;;;5101055;28;19920;-48
2023/01/18 01:03:13;;;;;;;;;;;2.30;99.90;;;;;;5101439;28;19919;-49
2023/01/18 01:08:23;;;;;;;;;;;2.30;99.90;;;;;;5101156;28;19954;-49
2023/01/18 01:10:50;;;;;;;;;;;2.20;99.90;;;;;;5100871;28;19908;-49
2023/01/18 01:27:07;;;;;;;;;;;2.00;99.90;;;;;;5100645;28;20408;-51
2023/01/18 01:29:32;;;;;;;;;;;2.00;99.90;;;;;;5101154;28;19908;-49
2023/01/18 01:31:58;;;;;;;;;;;1.90;99.90;;;;;;5100896;28;19909;-48
2023/01/18 01:34:24;;;;;;;;;;;1.90;99.90;;;;;;5100249;28;19915;-48
2023/01/18 01:36:49;;;;;;;;;;;1.80;99.90;;;;;;5100856;28;19912;-50
2023/01/18 01:39:16;;;;;;;;;;;1.80;99.90;;;;;;5100443;28;19912;-48
2023/01/18 01:41:41;;;;;;;;;;;1.80;99.90;;;;;;5100473;28;20355;-49
2023/01/18 01:44:16;;;;;;;;;;;1.80;99.90;;;;;;5100869;28;19912;-50
2023/01/18 01:46:49;;;;;;;;;;;1.80;99.90;;;;;;5100343;28;19917;-50
2023/01/18 01:49:20;;;;;;;;;;;1.70;99.90;;;;;;5100311;28;20291;-47
2023/01/18 01:51:47;;;;;;;;;;;1.70;99.90;;;;;;5100391;28;19915;-49
2023/01/18 01:54:24;;;;;;;;;;;1.70;99.90;;;;;;5100391;28;19920;-51
2023/01/18 01:56:51;;;;;;;;;;;1.70;99.90;;;;;;5100417;28;19939;-48
2023/01/18 01:59:17;;;;;;;;;;;1.60;99.90;;;;;;5100052;28;19927;-48
2023/01/18 02:01:44;;;;;;;;;;;1.70;99.90;;;;;;5100564;28;19961;-49
2023/01/18 02:04:09;;;;;;;;;;;1.60;99.90;;;;;;5099946;28;19912;-47
2023/01/18 02:06:36;;;;;;;;;;;1.60;99.90;;;;;;5100476;28;19908;-49
2023/01/18 02:09:04;;;;;;;;;;;1.60;99.90;;;;;;5099865;28;20355;-48
2023/01/18 02:11:29;;;;;;;;;;;1.60;99.90;;;;;;5100179;28;20443;-51
2023/01/18 02:13:57;;;;;;;;;;;1.60;99.90;;;;;;5099839;28;19955;-47
2023/01/18 02:16:36;;;;;;;;;;;1.60;99.90;;;;;;5099733;28;19931;-51
2023/01/18 02:19:34;;;;;;;;;;;1.60;99.90;;;;;;5099764;28;19912;-47
2023/01/18 02:22:07;;;;;;;;;;;1.70;99.90;;;;;;5087491;28;19908;-50
2023/01/18 02:24:39;;;;;;;;;;;1.70;99.90;;;;;;5099634;28;19908;-49
2023/01/18 02:27:10;;;;;;;;;;;1.80;99.90;;;;;;5099776;28;19915;-49
2023/01/18 02:29:41;;;;;;;;;;;1.80;99.90;;;;;;5099835;28;20386;-49
2023/01/18 02:32:13;;;;;;;;;;;2.00;99.90;;;;;;5099568;28;19908;-48
2023/01/18 02:35:01;;;;;;;;;;;2.00;99.90;;;;;;5099718;28;20273;-47
2023/01/18 02:37:29;;;;;;;;;;;2.10;99.90;;;;;;5099449;28;19954;-49
2023/01/18 02:39:55;;;;;;;;;;;2.30;99.90;;;;;;5099469;28;19948;-48
2023/01/18 02:48:13;;;;;;;;;;;2.60;99.90;;;;;;5099187;28;19977;-47
2023/01/18 02:50:39;;;;;;;;;;;2.70;99.90;;;;;;5099355;28;19930;-50
2023/01/18 02:53:04;;;;;;;;;;;2.70;99.90;;;;;;5099168;28;20389;-50
2023/01/18 02:55:34;;;;;;;;;;;2.80;99.90;;;;;;5099000;28;19909;-47
2023/01/18 02:58:20;;;;;;;;;;;2.80;99.90;;;;;;5099086;28;19957;-49
2023/01/18 03:00:49;;;;;;;;;;;2.80;99.90;;;;;;5098947;28;19967;-49
2023/01/18 03:03:16;;;;;;;;;;;2.90;99.90;;;;;;5098892;28;20356;-49
2023/01/18 03:05:41;;;;;;;;;;;2.90;99.90;;;;;;5098863;28;19908;-50
2023/01/18 03:08:20;;;;;;;;;;;2.90;99.90;;;;;;5099130;28;19918;-51
2023/01/18 03:11:03;;;;;;;;;;;3.00;99.90;;;;;;5099003;28;19917;-49
2023/01/18 03:13:35;;;;;;;;;;;3.00;99.90;;;;;;5098926;28;19908;-48
2023/01/18 03:16:13;;;;;;;;;;;3.00;99.90;;;;;;5099163;28;20003;-48
2023/01/18 03:19:00;;;;;;;;;;;3.10;99.90;;;;;;5098348;28;20355;-50
2023/01/18 03:21:33;;;;;;;;;;;3.10;99.90;;;;;;5098387;28;19916;-48
2023/01/18 03:24:00;;;;;;;;;;;3.10;99.90;;;;;;5098707;28;20347;-49
2023/01/18 03:26:27;;;;;;;;;;;3.10;99.90;;;;;;5098718;28;20336;-47
2023/01/18 03:34:39;;;;;;;;;;;3.20;99.90;;;;;;5098447;28;19914;-47
2023/01/18 03:37:11;;;;;;;;;;;3.20;99.90;;;;;;5098331;28;19908;-52
2023/01/18 03:40:00;;;;;;;;;;;3.30;99.90;;;;;;5098515;28;20369;-49
2023/01/18 03:42:45;;;;;;;;;;;3.30;99.90;;;;;;5095251;28;19957;-49
2023/01/18 03:45:16;;;;;;;;;;;3.30;99.90;;;;;;5098060;28;19941;-49
2023/01/18 03:47:41;;;;;;;;;;;3.30;99.90;;;;;;5098411;28;19920;-49
2023/01/18 03:50:07;;;;;;;;;;;3.20;99.90;;;;;;5098494;28;19955;-50
2023/01/18 03:52:40;;;;;;;;;;;3.40;99.90;;;;;;5098306;28;19919;-52
2023/01/18 03:55:10;;;;;;;;;;;3.40;99.90;;;;;;5098564;28;20010;-48
2023/01/18 03:57:38;;;;;;;;;;;3.40;99.90;;;;;;5098124;28;19957;-52
2023/01/18 04:00:06;;;;;;;;;;;3.50;99.90;;;;;;5097772;28;19919;-49
2023/01/18 04:02:31;;;;;;;;;;;3.50;99.90;;;;;;5098262;28;19994;-50
2023/01/18 04:05:02;;;;;;;;;;;3.50;99.90;;;;;;5098204;28;19954;-50
2023/01/18 04:07:29;;;;;;;;;;;3.60;99.90;;;;;;5097931;28;19954;-49
2023/01/18 04:09:54;;;;;;;;;;;3.60;99.90;;;;;;5097946;28;19908;-50
2023/01/18 04:12:20;;;;;;;;;;;3.60;99.90;;;;;;5098056;28;19915;-47
2023/01/18 04:14:46;;;;;;;;;;;3.60;99.90;;;;;;5097795;28;19908;-52
2023/01/18 04:17:11;;;;;;;;;;;3.70;99.90;;;;;;5098130;28;19915;-47
2023/01/18 04:19:39;;;;;;;;;;;3.70;99.90;;;;;;5097979;28;19916;-52
2023/01/18 04:22:05;;;;;;;;;;;3.70;99.90;;;;;;5098140;28;19910;-48
2023/01/18 04:24:30;;;;;;;;;;;3.70;99.90;;;;;;5097857;28;19994;-49
2023/01/18 04:26:56;;;;;;;;;;;3.70;99.90;;;;;;5098358;28;19940;-46
2023/01/18 04:29:22;;;;;;;;;;;3.70;99.90;;;;;;5097761;28;20367;-50
2023/01/18 04:31:47;;;;;;;;;;;3.60;99.90;;;;;;5097583;28;20363;-51
2023/01/18 04:34:13;;;;;;;;;;;3.70;99.90;;;;;;5097678;28;19915;-53
2023/01/18 04:36:39;;;;;;;;;;;3.70;99.90;;;;;;5098199;28;19908;-48
2023/01/18 04:39:04;;;;;;;;;;;3.70;99.90;;;;;;5097801;28;19916;-50
2023/01/18 04:41:30;;;;;;;;;;;3.70;99.90;;;;;;5098039;28;20322;-48
2023/01/18 04:43:55;;;;;;;;;;;3.70;99.90;;;;;;5097659;28;19908;-51
2023/01/18 04:46:21;;;;;;;;;;;3.70;99.90;;;;;;5097723;28;19914;-47
2023/01/18 04:48:50;;;;;;;;;;;3.60;99.90;;;;;;5097845;28;19964;-52
2023/01/18 04:51:16;;;;;;;;;;;3.60;99.90;;;;;;5097814;28;19954;-49
2023/01/18 04:53:42;;;;;;;;;;;3.50;99.90;;;;;;5097695;28;19908;-52
2023/01/18 04:56:08;;;;;;;;;;;3.50;99.90;;;;;;5097505;28;20292;-51
2023/01/18 04:58:34;;;;;;;;;;;3.40;99.90;;;;;;5097928;28;19909;-48
2023/01/18 05:01:04;;;;;;;;;;;3.20;99.90;;;;;;5097054;28;19921;-46
2023/01/18 05:03:30;;;;;;;;;;;3.10;99.90;;;;;;5097937;28;19908;-49
2023/01/18 05:05:56;;;;;;;;;;;3.00;99.90;;;;;;5097382;28;19908;-47
2023/01/18 05:08:22;;;;;;;;;;;3.00;99.90;;;;;;5097627;28;19992;-49
2023/01/18 05:10:47;;;;;;;;;;;3.00;99.90;;;;;;5100398;28;19962;-49
2023/01/18 05:13:13;;;;;;;;;;;2.90;99.90;;;;;;5101018;28;20021;-50
2023/01/18 05:15:38;;;;;;;;;;;2.90;99.90;;;;;;5101477;28;19908;-52
2023/01/18 05:18:05;;;;;;;;;;;2.90;99.90;;;;;;5101146;28;19938;-47
2023/01/18 05:20:31;;;;;;;;;;;2.90;99.90;;;;;;5100667;28;19912;-48
2023/01/18 05:22:57;;;;;;;;;;;2.90;99.90;;;;;;5101266;28;19957;-50
2023/01/18 05:25:22;;;;;;;;;;;2.90;99.90;;;;;;5100833;28;19963;-48
2023/01/18 05:27:48;;;;;;;;;;;2.90;99.90;;;;;;5100971;28;20433;-48
2023/01/18 05:30:14;;;;;;;;;;;3.00;99.90;;;;;;5100522;28;20355;-49
2023/01/18 05:32:40;;;;;;;;;;;3.00;99.90;;;;;;5100927;28;20020;-47
2023/01/18 05:35:06;;;;;;;;;;;3.00;99.90;;;;;;5100681;28;19915;-48
2023/01/18 05:37:31;;;;;;;;;;;3.00;99.90;;;;;;5100768;28;19953;-50
2023/01/18 05:39:57;;;;;;;;;;;3.10;99.90;;;;;;5100948;28;20084;-47
2023/01/18 05:42:23;;;;;;;;;;;3.10;99.90;;;;;;5100448;28;19908;-50
2023/01/18 05:44:49;;;;;;;;;;;3.10;99.90;;;;;;5100908;28;19909;-52
2023/01/18 05:47:14;;;;;;;;;;;3.20;99.90;;;;;;5100425;28;19908;-50
2023/01/18 05:49:40;;;;;;;;;;;3.20;99.90;;;;;;5100128;28;19915;-48
2023/01/18 05:52:07;;;;;;;;;;;3.20;99.90;;;;;;5100515;28;19915;-48
2023/01/18 05:54:32;;;;;;;;;;;3.30;99.90;;;;;;5100100;28;19908;-46
2023/01/18 05:56:58;;;;;;;;;;;3.30;99.90;;;;;;5100642;28;19935;-49
2023/01/18 05:59:24;;;;;;;;;;;3.30;99.90;;;;;;5099908;28;19920;-49
2023/01/18 06:01:51;;;;;;;;;;;3.30;99.90;;;;;;5099307;28;21272;-49
2023/01/18 06:04:17;;;;;;;;;;;3.30;99.90;;;;;;5099879;28;19913;-53
2023/01/18 06:06:42;;;;;;;;;;;3.30;99.90;;;;;;5100481;28;19985;-48
2023/01/18 06:09:08;;;;;;;;;;;3.40;99.90;;;;;;5099979;28;19965;-48
2023/01/18 06:11:34;;;;;;;;;;;3.40;99.90;;;;;;5099931;28;19908;-51
2023/01/18 06:13:59;;;;;;;;;;;3.40;99.90;;;;;;5100072;28;20329;-53
2023/01/18 06:16:25;;;;;;;;;;;3.40;99.90;;;;;;5100000;28;19908;-51
2023/01/18 06:18:51;;;;;;;;;;;3.40;99.90;;;;;;5099912;28;20476;-51
2023/01/18 06:21:16;;;;;;;;;;;3.30;99.90;;;;;;5099744;28;19908;-48
2023/01/18 06:23:42;;;;;;;;;;;3.30;99.90;;;;;;5099702;28;19915;-51
2023/01/18 06:26:07;;;;;;;;;;;3.30;99.90;;;;;;5099818;28;19912;-49
2023/01/18 06:28:33;;;;;;;;;;;3.20;99.90;;;;;;5100083;28;20008;-48
2023/01/18 06:30:59;;;;;;;;;;;3.20;99.90;;;;;;5099573;28;20006;-47
2023/01/18 06:33:24;;;;;;;;;;;3.20;99.90;;;;;;5100022;28;19962;-49
2023/01/18 06:35:51;;;;;;;;;;;3.20;99.90;;;;;;5099476;28;19908;-47
2023/01/18 06:38:16;;;;;;;;;;;3.10;99.90;;;;;;5099471;28;19916;-50
2023/01/18 06:40:42;;;;;;;;;;;3.20;99.90;;;;;;5099290;28;19912;-52
2023/01/18 06:43:09;;;;;;;;;;;3.20;99.90;;;;;;5099580;28;19919;-52
2023/01/18 06:45:35;;;;;;;;;;;3.10;99.90;;;;;;5099201;28;19987;-49
2023/01/18 06:48:00;;;;;;;;;;;3.20;99.90;;;;;;5099272;28;19994;-48
2023/01/18 06:50:26;;;;;;;;;;;3.20;99.90;;;;;;5099408;28;19967;-48
2023/01/18 06:52:54;;;;;;;;;;;3.30;99.90;;;;;;5099075;28;19915;-47
2023/01/18 06:55:20;;;;;;;;;;;3.20;99.90;;;;;;5098727;28;19908;-52
2023/01/18 06:57:46;;;;;;;;;;;3.30;99.90;;;;;;5099126;28;20352;-49
2023/01/18 07:00:12;;;;;;;;;;;3.30;99.90;;;;;;5098677;28;19927;-48
2023/01/18 07:02:38;;;;;;;;;;;3.30;99.90;;;;;;5098904;28;20007;-49
2023/01/18 07:05:04;;;;;;;;;;;3.30;99.90;;;;;;5099382;28;19959;-50
2023/01/18 07:07:29;;;;;;;;;;;3.20;99.90;;;;;;5098837;28;19973;-52
2023/01/18 07:09:55;;;;;;;;;;;3.20;99.90;;;;;;5098507;28;19908;-50
2023/01/18 07:12:21;;;;;;;;;;;3.20;99.90;;;;;;5098545;28;20464;-51
2023/01/18 07:14:47;;;;;;;;;;;3.20;99.90;;;;;;5098460;28;19987;-50
2023/01/18 07:17:13;;;;;;;;;;;3.20;99.90;;;;;;5098799;28;19912;-51
2023/01/18 07:19:39;;;;;;;;;;;3.20;99.90;;;;;;5098794;28;19919;-51
2023/01/18 07:22:04;;;;;;;;;;;3.20;99.90;;;;;;5098486;28;19961;-49
2023/01/18 07:24:30;;;;;;;;;;;3.10;99.90;;;;;;5098690;28;19909;-50
2023/01/18 07:26:58;;;;;;;;;;;3.10;99.90;;;;;;5098425;28;20343;-48
2023/01/18 07:29:24;;;;;;;;;;;3.00;99.90;;;;;;5098262;28;20367;-50
2023/01/18 07:31:50;;;;;;;;;;;2.90;99.90;;;;;;5098154;28;19916;-54
2023/01/18 07:34:15;;;;;;;;;;;2.80;99.90;;;;;;5098131;28;19995;-48
2023/01/18 07:36:42;;;;;;;;;;;2.70;99.90;;;;;;5098272;28;19951;-47
2023/01/18 07:39:08;;;;;;;;;;;2.60;99.90;;;;;;5098449;28;19923;-52
2023/01/18 07:41:34;;;;;;;;;;;2.60;99.90;;;;;;5098291;28;20364;-49
2023/01/18 07:44:00;;;;;;;;;;;2.50;99.90;;;;;;5098494;28;19931;-49
2023/01/18 07:46:26;;;;;;;;;;;2.50;99.90;;;;;;5098666;28;19908;-52
2023/01/18 07:48:52;;;;;;;;;;;2.40;99.90;;;;;;5098063;28;19995;-49
2023/01/18 07:51:18;;;;;;;;;;;2.40;99.90;;;;;;5098372;28;19954;-50
2023/01/18 07:53:44;;;;;;;;;;;2.20;99.90;;;;;;5098235;28;19908;-48
2023/01/18 07:56:12;;;;;;;;;;;2.10;99.90;;;;;;5098441;28;19936;-51
2023/01/18 07:58:38;;;;;;;;;;;2.10;99.90;;;;;;5097861;28;19912;-53
2023/01/18 08:01:14;;;;;;;;;;;2.10;99.90;;;;;;5097832;28;19930;-48
2023/01/18 08:03:40;;;;;;;;;;;1.90;99.90;;;;;;5098218;28;19929;-48
2023/01/18 08:06:06;;;;;;;;;;;2.10;99.90;;;;;;5097979;28;19932;-52
2023/01/18 08:08:33;;;;;;;;;;;2.00;99.90;;;;;;5098093;28;19960;-48
2023/01/18 08:11:00;;;;;;;;;;;2.00;99.90;;;;;;5097716;28;20400;-50
2023/01/18 08:13:26;;;;;;;;;;;2.00;99.90;;;;;;5097679;28;19909;-49
2023/01/18 08:15:52;;;;;;;;;;;1.90;99.90;;;;;;5097878;28;19912;-51
2023/01/18 08:18:18;;;;;;;;;;;1.90;99.90;;;;;;5097715;28;19963;-48
2023/01/18 08:20:47;;;;;;;;;;;1.90;99.90;;;;;;5098006;28;19912;-49
2023/01/18 08:23:13;;;;;;;;;;;1.90;99.90;;;;;;5097825;28;19963;-49
2023/01/18 08:25:39;;;;;;;;;;;1.90;99.90;;;;;;5097924;28;19909;-52
2023/01/18 08:28:05;;;;;;;;;;;1.90;99.90;;;;;;5097626;28;20425;-50
2023/01/18 08:30:32;;;;;;;;;;;1.80;99.90;;;;;;5097481;28;19940;-54
2023/01/18 08:32:59;;;;;;;;;;;2.00;99.90;;;;;;5097865;28;19957;-49
2023/01/18 08:35:26;;;;;;;;;;;2.00;99.90;;;;;;5097480;28;19939;-54
2023/01/18 08:37:51;;;;;;;;;;;2.10;99.90;;;;;;5097823;28;19912;-50
2023/01/18 08:40:18;;;;;;;;;;;2.30;99.90;;;;;;5097659;28;20349;-54
2023/01/18 08:42:45;;;;;;;;;;;2.40;99.90;;;;;;5097724;28;19956;-52
2023/01/18 08:45:11;;;;;;;;;;;2.50;99.90;;;;;;5099888;28;19946;-53
2023/01/18 08:47:37;;;;;;;;;;;2.60;99.90;;;;;;5101415;28;19908;-52
2023/01/18 08:50:03;;;;;;;;;;;2.60;99.90;;;;;;5101490;28;19915;-52
2023/01/18 08:52:29;;;;;;;;;;;2.70;99.90;;;;;;5101476;28;19908;-51
2023/01/18 08:54:54;;;;;;;;;;;2.90;99.90;;;;;;5101201;28;19915;-51
2023/01/18 08:57:20;;;;;;;;;;;3.20;99.90;;;;;;5101098;28;19914;-51
2023/01/18 08:59:46;;;;;;;;;;;3.40;99.90;;;;;;5101144;28;19919;-52
2023/01/18 09:02:11;;;;;;;;;;;3.40;99.90;;;;;;5101087;28;19908;-49
2023/01/18 09:04:37;;;;;;;;;;;3.50;99.90;;;;;;5101298;28;19908;-50
2023/01/18 09:07:02;;;;;;;;;;;3.50;99.90;;;;;;5101228;28;19954;-48
2023/01/18 09:09:28;;;;;;;;;;;3.50;99.90;;;;;;5101118;28;19912;-49
2023/01/18 09:11:55;;;;;;;;;;;3.50;99.90;;;;;;5100854;28;19915;-49
2023/01/18 09:14:21;;;;;;;;;;;3.60;99.90;;;;;;5100442;28;19908;-53
2023/01/18 09:16:47;;;;;;;;;;;3.70;99.90;;;;;;5100940;28;19915;-51
2023/01/18 09:19:13;;;;;;;;;;;3.70;99.90;;;;;;5100916;28;20010;-52
2023/01/18 09:21:39;;;;;;;;;;;3.80;99.90;;;;;;5100464;28;20065;-53
2023/01/18 09:24:05;;;;;;;;;;;3.80;99.90;;;;;;5100466;28;19909;-53
2023/01/18 09:26:31;;;;;;;;;;;3.90;99.90;;;;;;5100701;28;19915;-50
2023/01/18 09:28:56;;;;;;;;;;;4.00;99.90;;;;;;5100957;28;19934;-51
2023/01/18 09:31:23;;;;;;;;;;;4.10;99.90;;;;;;5100866;28;20380;-50
2023/01/18 09:33:49;;;;;;;;;;;4.20;99.90;;;;;;5100835;28;20256;-50
2023/01/18 09:36:16;;;;;;;;;;;4.20;99.90;;;;;;5100786;28;19915;-52
2023/01/18 09:38:41;;;;;;;;;;;4.10;99.90;;;;;;5100413;28;19909;-49
2023/01/18 09:41:26;;;;;;;;;;;4.20;99.90;;;;;;5100692;28;19908;-53
2023/01/18 09:43:54;;;;;;;;;;;4.20;99.90;;;;;;5100351;28;20340;-50
2023/01/18 09:46:21;;;;;;;;;;;4.20;99.90;;;;;;5100145;28;20428;-49
2023/01/18 09:48:56;;;;;;;;;;;4.10;99.90;;;;;;5100292;28;19908;-54
2023/01/18 09:51:24;;;;;;;;;;;4.20;99.90;;;;;;5100500;28;19962;-51
2023/01/18 09:53:53;;;;;;;;;;;4.30;99.90;;;;;;5100187;28;20053;-49
2023/01/18 09:56:24;;;;;;;;;;;4.30;99.90;;;;;;5099952;28;19916;-51
2023/01/18 09:58:58;;;;;;;;;;;4.30;99.90;;;;;;5099937;28;19955;-51
2023/01/18 10:01:26;;;;;;;;;;;4.20;99.90;;;;;;5098557;28;19912;-52
2023/01/18 10:03:55;;;;;;;;;;;4.30;99.90;;;;;;5099860;28;19908;-53
2023/01/18 10:06:24;;;;;;;;;;;4.30;99.90;;;;;;5099726;28;19927;-48
2023/01/18 10:08:55;;;;;;;;;;;4.30;99.90;;;;;;5100080;28;19908;-50
2023/01/18 10:11:30;;;;;;;;;;;4.30;99.90;;;;;;5100099;28;19908;-49
2023/01/18 10:13:58;;;;;;;;;;;4.30;99.90;;;;;;5099718;28;19916;-50
2023/01/18 10:16:25;;;;;;;;;;;4.30;99.90;;;;;;5099891;28;19990;-49
2023/01/18 10:18:52;;;;;;;;;;;4.40;99.90;;;;;;5099720;28;19955;-49
2023/01/18 10:21:46;;;;;;;;;;;4.40;99.90;;;;;;5099805;28;19912;-50
2023/01/18 10:24:15;;;;;;;;;;;4.50;99.90;;;;;;5099580;28;19916;-48
2023/01/18 10:26:40;;;;;;;;;;;4.50;99.90;;;;;;5099345;28;20105;-51
2023/01/18 10:29:06;;;;;;;;;;;4.60;99.90;;;;;;5099506;28;19943;-53
2023/01/18 10:31:31;;;;;;;;;;;4.80;99.90;;;;;;5099608;28;20004;-50
2023/01/18 10:33:59;;;;;;;;;;;5.10;99.90;;;;;;5099537;28;19908;-49
2023/01/18 10:36:45;;;;;;;;;;;5.40;99.90;;;;;;5099271;28;19962;-46
2023/01/18 10:39:30;;;;;;;;;;;5.80;99.90;;;;;;5098492;28;19957;-49
2023/01/18 10:42:03;;;;;;;;;;;6.50;99.90;;;;;;5099190;28;19908;-48
2023/01/18 10:44:30;;;;;;;;;;;7.00;99.90;;;;;;5099008;28;19915;-47
2023/01/18 10:46:56;;;;;;;;;;;7.60;99.90;;;;;;5099018;28;19994;-49
2023/01/18 10:49:33;;;;;;;;;;;7.80;99.90;;;;;;5098905;28;20323;-48
2023/01/18 10:52:19;;;;;;;;;;;8.00;99.90;;;;;;5098893;28;19961;-47
2023/01/18 10:54:48;;;;;;;;;;;9.20;99.90;;;;;;5094042;28;19909;-51
2023/01/18 10:57:18;;;;;;;;;;;10.30;99.90;;;;;;5099046;28;19909;-46
2023/01/18 10:59:44;;;;;;;;;;;11.20;99.90;;;;;;5098854;28;19931;-53
2023/01/18 11:02:22;;;;;;;;;;;11.50;99.90;;;;;;5099208;28;20244;-50
2023/01/18 11:04:55;;;;;;;;;;;11.00;99.90;;;;;;5098940;28;19908;-52
2023/01/18 11:07:25;;;;;;;;;;;10.60;99.90;;;;;;5098155;28;19912;-47
2023/01/18 11:09:55;;;;;;;;;;;10.20;99.90;;;;;;5098721;28;19908;-51
2023/01/18 11:12:32;;;;;;;;;;;9.70;99.90;;;;;;5098602;28;19908;-49
2023/01/18 11:15:13;;;;;;;;;;;9.10;99.90;;;;;;5098856;28;19912;-49
2023/01/18 11:17:40;;;;;;;;;;;8.80;99.90;;;;;;5098490;28;19946;-51
2023/01/18 11:20:10;;;;;;;;;;;8.60;99.90;;;;;;5098451;28;20011;-51
2023/01/18 11:22:36;;;;;;;;;;;8.60;99.90;;;;;;5098413;28;20011;-50
2023/01/18 11:25:02;;;;;;;;;;;8.80;99.90;;;;;;5099199;28;19909;-50
2023/01/18 11:27:30;;;;;;;;;;;9.20;99.90;;;;;;5098302;28;19966;-49
2023/01/18 11:29:56;;;;;;;;;;;9.40;99.90;;;;;;5098268;28;19962;-47
2023/01/18 11:32:23;;;;;;;;;;;9.40;99.90;;;;;;5098413;28;19908;-46
2023/01/18 11:34:50;;;;;;;;;;;9.40;99.90;;;;;;5098707;28;19912;-53
2023/01/18 11:37:33;;;;;;;;;;;9.20;99.90;;;;;;5098177;28;19915;-50
2023/01/18 11:39:59;;;;;;;;;;;8.90;99.90;;;;;;5098146;28;19916;-49
2023/01/18 11:42:25;;;;;;;;;;;8.90;99.90;;;;;;5098292;28;20383;-49
2023/01/18 11:45:09;;;;;;;;;;;9.20;99.90;;;;;;5098118;28;19931;-52
2023/01/18 11:47:43;;;;;;;;;;;9.20;99.90;;;;;;5097850;28;19908;-52
2023/01/18 11:50:22;;;;;;;;;;;9.50;99.90;;;;;;5098021;28;19909;-48
2023/01/18 11:52:53;;;;;;;;;;;9.70;99.90;;;;;;5097968;28;19908;-48
2023/01/18 11:55:19;;;;;;;;;;;9.80;99.90;;;;;;5097891;28;19912;-52
2023/01/18 11:57:44;;;;;;;;;;;9.70;99.90;;;;;;5097976;28;19999;-48
2023/01/18 12:00:13;;;;;;;;;;;9.40;99.90;;;;;;5097863;28;19924;-48
2023/01/18 12:02:39;;;;;;;;;;;9.20;99.90;;;;;;5097831;28;20681;-48
2023/01/18 12:05:11;;;;;;;;;;;9.20;99.90;;;;;;5098003;28;19947;-49
2023/01/18 12:07:43;;;;;;;;;;;8.90;99.90;;;;;;5097993;28;19958;-48
2023/01/18 12:10:16;;;;;;;;;;;8.80;99.90;;;;;;5098018;28;19916;-50
2023/01/18 12:12:52;;;;;;;;;;;8.70;99.90;;;;;;5097747;28;20382;-46
2023/01/18 12:15:38;;;;;;;;;;;8.60;99.90;;;;;;5097924;28;19942;-47
2023/01/18 12:18:22;;;;;;;;;;;8.40;99.90;;;;;;5097953;28;19908;-49
2023/01/18 12:20:52;;;;;;;;;;;8.30;99.90;;;;;;5102044;28;19916;-50
2023/01/18 12:23:24;;;;;;;;;;;8.20;99.90;;;;;;5102352;28;19908;-48
2023/01/18 12:26:00;;;;;;;;;;;8.10;99.90;;;;;;5101855;28;19972;-47
2023/01/18 12:28:35;;;;;;;;;;;8.00;99.90;;;;;;5101656;28;19908;-48
2023/01/18 12:31:24;;;;;;;;;;;8.20;99.90;;;;;;5101460;28;19999;-47
2023/01/18 12:33:59;;;;;;;;;;;8.30;99.90;;;;;;5098722;28;19976;-49
2023/01/18 12:36:39;;;;;;;;;;;8.40;99.90;;;;;;5101589;28;19915;-50
2023/01/18 12:39:30;;;;;;;;;;;8.70;99.90;;;;;;5101773;28;19912;-52
2023/01/18 12:41:58;;;;;;;;;;;8.90;99.90;;;;;;5101490;28;19999;-52
2023/01/18 12:44:32;;;;;;;;;;;8.90;99.90;;;;;;5101334;28;20424;-48
2023/01/18 12:47:16;;;;;;;;;;;8.80;99.90;;;;;;5101473;28;19908;-52
2023/01/18 12:49:47;;;;;;;;;;;8.80;99.90;;;;;;5101457;28;19908;-46
2023/01/18 12:52:15;;;;;;;;;;;8.70;99.90;;;;;;5101607;28;19915;-48
2023/01/18 12:54:44;;;;;;;;;;;8.50;99.90;;;;;;5101103;28;20348;-50
2023/01/18 12:57:12;;;;;;;;;;;8.40;99.90;;;;;;5101282;28;19916;-50
2023/01/18 12:59:52;;;;;;;;;;;8.40;99.90;;;;;;5100986;28;19927;-47
2023/01/18 13:02:39;;;;;;;;;;;8.40;99.90;;;;;;5101344;28;19908;-49
2023/01/18 13:05:10;;;;;;;;;;;8.30;99.90;;;;;;5101516;28;20240;-48
2023/01/18 13:07:42;;;;;;;;;;;8.30;99.90;;;;;;5101109;28;19909;-48
2023/01/18 13:10:20;;;;;;;;;;;8.20;99.90;;;;;;5101079;28;19957;-49
2023/01/18 13:12:47;;;;;;;;;;;8.10;99.90;;;;;;5101131;28;19922;-46
2023/01/18 13:15:27;;;;;;;;;;;8.30;99.90;;;;;;5100963;28;19966;-50
2023/01/18 13:17:56;;;;;;;;;;;8.30;99.90;;;;;;5101123;28;20349;-50
2023/01/18 13:20:33;;;;;;;;;;;8.30;99.90;;;;;;5100697;28;19913;-51
2023/01/18 13:23:05;;;;;;;;;;;8.30;99.90;;;;;;5100987;28;20332;-46
2023/01/18 13:25:53;;;;;;;;;;;8.30;99.90;;;;;;5100823;28;19908;-50
2023/01/18 13:28:22;;;;;;;;;;;8.40;99.90;;;;;;5100654;28;19969;-52
2023/01/18 13:30:51;;;;;;;;;;;8.60;99.90;;;;;;5099989;28;19961;-49
2023/01/18 13:33:21;;;;;;;;;;;8.90;99.90;;;;;;5100505;28;19912;-52
2023/01/18 13:36:08;;;;;;;;;;;9.00;99.90;;;;;;5100501;28;19908;-51
2023/01/18 13:38:39;;;;;;;;;;;9.10;99.90;;;;;;5100405;28;19908;-47
2023/01/18 13:41:11;;;;;;;;;;;9.00;99.90;;;;;;5100583;28;19935;-50
2023/01/18 13:43:39;;;;;;;;;;;8.90;99.90;;;;;;5100893;28;19908;-48
2023/01/18 13:46:04;;;;;;;;;;;8.60;99.90;;;;;;5100238;28;19909;-49
2023/01/18 13:48:53;;;;;;;;;;;8.50;99.90;;;;;;5100529;28;19914;-47
2023/01/18 13:51:38;;;;;;;;;;;8.30;99.90;;;;;;5100443;28;19919;-47
2023/01/18 13:54:05;;;;;;;;;;;8.20;99.90;;;;;;5100702;28;19915;-50
2023/01/18 13:56:37;;;;;;;;;;;8.20;99.90;;;;;;5099916;28;19915;-48
2023/01/18 13:59:04;;;;;;;;;;;8.00;99.90;;;;;;5099991;28;20394;-50
2023/01/18 14:01:32;;;;;;;;;;;7.90;99.90;;;;;;5100279;28;19915;-52
2023/01/18 14:04:04;;;;;;;;;;;7.80;99.90;;;;;;5100793;28;19908;-49
2023/01/18 14:06:29;;;;;;;;;;;7.70;99.90;;;;;;5100395;28;19915;-49
2023/01/18 14:08:56;;;;;;;;;;;7.60;99.90;;;;;;5100011;28;19912;-46
2023/01/18 14:11:24;;;;;;;;;;;7.40;99.90;;;;;;5100057;28;20317;-47
2023/01/18 14:13:50;;;;;;;;;;;7.30;99.90;;;;;;5100075;28;19958;-51
2023/01/18 14:16:23;;;;;;;;;;;7.20;99.90;;;;;;5100020;28;19908;-50
2023/01/18 14:18:50;;;;;;;;;;;7.20;99.90;;;;;;5099873;28;19912;-47
2023/01/18 14:21:28;;;;;;;;;;;7.10;99.90;;;;;;5099942;28;19957;-48
2023/01/18 14:23:54;;;;;;;;;;;7.10;99.90;;;;;;5099593;28;20396;-47
2023/01/18 14:26:21;;;;;;;;;;;7.10;99.90;;;;;;5099663;28;19970;-47
2023/01/18 14:29:06;;;;;;;;;;;7.10;99.90;;;;;;5099734;28;19908;-53
2023/01/18 14:31:34;;;;;;;;;;;7.10;99.90;;;;;;5099585;28;19914;-48
2023/01/18 14:34:18;;;;;;;;;;;7.00;99.90;;;;;;5099904;28;19954;-48
2023/01/18 14:36:44;;;;;;;;;;;7.00;99.90;;;;;;5099549;28;19998;-49
2023/01/18 14:39:15;;;;;;;;;;;7.00;99.90;;;;;;5099457;28;19956;-50
2023/01/18 14:41:43;;;;;;;;;;;6.90;99.90;;;;;;5098585;28;19908;-51
2023/01/18 14:44:22;;;;;;;;;;;6.80;99.90;;;;;;5099110;28;19939;-48
2023/01/18 14:46:49;;;;;;;;;;;6.80;99.90;;;;;;5100150;28;19912;-49
2023/01/18 14:49:19;;;;;;;;;;;6.80;99.90;;;;;;5099380;28;19965;-49
2023/01/18 14:51:48;;;;;;;;;;;6.70;99.90;;;;;;5098987;28;20276;-49
2023/01/18 14:54:15;;;;;;;;;;;6.70;99.90;;;;;;5099791;28;19908;-48
2023/01/18 14:56:41;;;;;;;;;;;6.70;99.90;;;;;;5098977;28;19930;-49
2023/01/18 14:59:21;;;;;;;;;;;6.60;99.90;;;;;;5098510;28;20399;-51
2023/01/18 15:01:52;;;;;;;;;;;6.60;99.90;;;;;;5098763;28;20007;-45
2023/01/18 15:04:20;;;;;;;;;;;6.60;99.90;;;;;;5099192;28;19915;-47
2023/01/18 15:06:47;;;;;;;;;;;6.60;99.90;;;;;;5098922;28;20401;-50
2023/01/18 15:09:13;;;;;;;;;;;6.50;99.90;;;;;;5098818;28;20346;-51